Time;durP1;ratioP1;P1;durP2;ratioP2;P2;SDS_P1;SDS_P2;PMS_P1;PMS_P2;Temp;Humidity;BMP_temperature;BMP_pressure;BME280_temperature;BME280_humidity;BME280_pressure;Samples;Min_cycle;Max_cycle;Signal;HPM_P1;HPM_P2
2021/09/13 00:02:22;;;;;;;11.40;10.40;;;19.10;99.90;;;;;;6226808;28;20233;-64
2021/09/13 00:05:25;;;;;;;10.90;9.90;;;19.10;99.90;;;;;;6226872;28;20311;-64
2021/09/13 00:08:28;;;;;;;11.93;10.93;;;19.10;99.90;;;;;;6227010;28;20239;-64
2021/09/13 00:11:31;;;;;;;12.17;11.07;;;19.10;99.90;;;;;;6226257;28;20261;-64
2021/09/13 00:14:36;;;;;;;11.10;10.10;;;19.10;99.90;;;;;;6226703;28;20232;-64
2021/09/13 00:17:39;;;;;;;10.77;9.87;;;19.00;99.90;;;;;;6223761;28;20224;-64
2021/09/13 00:20:43;;;;;;;11.77;10.67;;;19.00;99.90;;;;;;6226561;28;20252;-63
2021/09/13 00:23:46;;;;;;;11.70;10.67;;;19.00;99.90;;;;;;6225473;28;20669;-63
2021/09/13 00:26:49;;;;;;;11.90;10.90;;;18.90;99.90;;;;;;6226543;28;20205;-63
2021/09/13 00:29:54;;;;;;;12.37;11.37;;;18.90;99.90;;;;;;6217333;28;20197;-63
2021/09/13 00:32:57;;;;;;;10.80;9.80;;;18.90;99.90;;;;;;6212817;28;20197;-63
2021/09/13 00:36:00;;;;;;;12.57;11.37;;;18.80;99.90;;;;;;6212032;28;20197;-63
2021/09/13 00:39:03;;;;;;;11.03;10.13;;;18.80;99.90;;;;;;6209589;28;20201;-63
2021/09/13 00:42:07;;;;;;;11.83;10.80;;;18.80;99.90;;;;;;6210374;28;20229;-63
2021/09/13 00:45:12;;;;;;;11.57;10.57;;;18.80;99.90;;;;;;6213326;28;20251;-63
2021/09/13 00:48:15;;;;;;;12.67;11.47;;;18.70;99.90;;;;;;6212617;28;20233;-63
2021/09/13 00:51:18;;;;;;;11.23;10.17;;;18.70;99.90;;;;;;6207431;28;20224;-63
2021/09/13 00:54:21;;;;;;;11.67;10.57;;;18.70;99.90;;;;;;6211866;28;20264;-63
2021/09/13 00:57:25;;;;;;;11.60;10.50;;;18.70;99.90;;;;;;6214353;28;20560;-63
2021/09/13 01:00:29;;;;;;;11.40;10.30;;;18.70;99.90;;;;;;6213056;28;20238;-63
2021/09/13 01:03:33;;;;;;;11.43;10.33;;;18.60;99.90;;;;;;6211288;28;20689;-64
2021/09/13 01:06:36;;;;;;;11.63;10.73;;;18.60;99.90;;;;;;6211662;28;20232;-64
2021/09/13 01:09:39;;;;;;;11.90;10.90;;;18.60;99.90;;;;;;6216332;28;20228;-64
2021/09/13 01:12:43;;;;;;;10.93;10.13;;;18.50;99.90;;;;;;6204607;28;20487;-63
2021/09/13 01:15:47;;;;;;;12.40;11.20;;;18.50;99.90;;;;;;6201046;28;20244;-64
2021/09/13 01:18:51;;;;;;;11.50;10.60;;;18.50;99.90;;;;;;6212541;28;20221;-63
2021/09/13 01:21:55;;;;;;;12.33;11.20;;;18.40;99.90;;;;;;6214667;28;20222;-63
2021/09/13 01:25:00;;;;;;;13.20;11.87;;;18.40;99.90;;;;;;6212404;28;20233;-63
2021/09/13 01:28:03;;;;;;;12.53;11.43;;;18.40;99.90;;;;;;6217734;28;20241;-63
2021/09/13 01:31:07;;;;;;;12.30;11.20;;;18.40;99.90;;;;;;6211464;28;20225;-63
2021/09/13 01:34:10;;;;;;;11.57;10.63;;;18.40;99.90;;;;;;6203432;28;20749;-63
2021/09/13 01:37:13;;;;;;;12.63;11.40;;;18.40;99.90;;;;;;6214355;28;20240;-63
2021/09/13 01:40:18;;;;;;;12.27;11.37;;;18.40;99.90;;;;;;6209343;28;20271;-63
2021/09/13 01:43:21;;;;;;;13.23;12.23;;;18.40;99.90;;;;;;6213394;28;20225;-63
2021/09/13 01:46:24;;;;;;;12.43;11.43;;;18.30;99.90;;;;;;6218896;28;20545;-63
2021/09/13 01:49:27;;;;;;;12.87;11.73;;;18.30;99.90;;;;;;6226496;28;20560;-63
2021/09/13 01:52:30;;;;;;;11.30;10.30;;;18.20;99.90;;;;;;6216557;28;20240;-63
2021/09/13 01:55:35;;;;;;;12.23;11.03;;;18.20;99.90;;;;;;6216978;28;20495;-63
2021/09/13 01:58:38;;;;;;;11.73;10.73;;;18.20;99.90;;;;;;6206210;28;20482;-63
2021/09/13 02:01:41;;;;;;;12.27;11.10;;;18.20;99.90;;;;;;6211994;28;20477;-63
2021/09/13 02:04:45;;;;;;;11.57;10.33;;;18.10;99.90;;;;;;6209222;28;20642;-63
2021/09/13 02:07:48;;;;;;;12.40;11.33;;;18.10;99.90;;;;;;6211402;28;20483;-63
2021/09/13 02:10:54;;;;;;;11.50;10.40;;;18.10;99.90;;;;;;6213198;28;20479;-63
2021/09/13 02:13:57;;;;;;;14.00;12.70;;;18.10;99.90;;;;;;6214061;28;20241;-63
2021/09/13 02:17:00;;;;;;;12.60;11.50;;;18.00;99.90;;;;;;6215987;28;20479;-63
2021/09/13 02:20:04;;;;;;;13.57;12.17;;;18.00;99.90;;;;;;6215989;28;20252;-63
2021/09/13 02:23:07;;;;;;;11.77;10.70;;;18.00;99.90;;;;;;6206576;28;20473;-63
2021/09/13 02:26:12;;;;;;;11.37;10.37;;;18.00;99.90;;;;;;6205029;28;20480;-63
2021/09/13 02:29:15;;;;;;;11.33;10.43;;;17.90;99.90;;;;;;6204968;28;20233;-63
2021/09/13 02:32:18;;;;;;;12.30;11.20;;;17.90;99.90;;;;;;6204350;28;20245;-64
2021/09/13 02:35:21;;;;;;;12.20;11.20;;;17.90;99.90;;;;;;6215759;28;20468;-64
2021/09/13 02:38:24;;;;;;;11.40;10.40;;;17.90;99.90;;;;;;6216926;28;20232;-64
2021/09/13 02:41:28;;;;;;;11.63;10.60;;;17.80;99.90;;;;;;6214256;28;20468;-64
2021/09/13 02:44:31;;;;;;;12.37;11.30;;;17.80;99.90;;;;;;6221663;28;20228;-64
2021/09/13 02:47:35;;;;;;;11.73;10.70;;;17.80;99.90;;;;;;6218075;28;20476;-64
2021/09/13 02:50:38;;;;;;;12.67;11.67;;;17.70;99.90;;;;;;6218485;28;20478;-63
2021/09/13 02:53:41;;;;;;;11.17;10.27;;;17.70;99.90;;;;;;6219272;28;20237;-62
2021/09/13 02:56:46;;;;;;;11.50;10.53;;;17.60;99.90;;;;;;6203852;28;20489;-62
2021/09/13 02:59:50;;;;;;;12.33;11.33;;;17.50;99.90;;;;;;6204111;28;20453;-62
2021/09/13 03:02:53;;;;;;;11.33;10.43;;;17.50;99.90;;;;;;6203684;28;20441;-62
2021/09/13 03:05:56;;;;;;;10.77;9.77;;;17.50;99.90;;;;;;6204061;28;20312;-62
2021/09/13 03:08:59;;;;;;;11.43;10.40;;;17.40;99.90;;;;;;6206446;28;20462;-62
2021/09/13 03:12:05;;;;;;;11.87;10.77;;;17.40;99.90;;;;;;6207842;28;20660;-62
2021/09/13 03:15:10;;;;;;;10.30;9.43;;;17.40;99.90;;;;;;6204785;28;20457;-63
2021/09/13 03:18:13;;;;;;;10.83;9.97;;;17.30;99.90;;;;;;6206183;28;20801;-63
2021/09/13 03:21:16;;;;;;;12.27;11.17;;;17.30;99.90;;;;;;6212760;28;20473;-63
2021/09/13 03:24:19;;;;;;;10.97;9.97;;;17.30;99.90;;;;;;6207097;28;20483;-62
2021/09/13 03:27:24;;;;;;;11.70;10.77;;;17.20;99.90;;;;;;6203045;28;20976;-62
2021/09/13 03:30:28;;;;;;;11.87;10.87;;;17.20;99.90;;;;;;6203521;28;20480;-63
2021/09/13 03:33:32;;;;;;;12.57;11.47;;;17.20;99.90;;;;;;6202971;28;20469;-62
2021/09/13 03:36:38;;;;;;;11.07;10.17;;;17.20;99.90;;;;;;6203502;28;20526;-63
2021/09/13 03:39:41;;;;;;;11.03;10.20;;;17.10;99.90;;;;;;6203145;28;20986;-63
2021/09/13 03:42:46;;;;;;;11.60;10.60;;;17.10;99.90;;;;;;6202594;28;21027;-63
2021/09/13 03:45:49;;;;;;;12.27;11.07;;;17.00;99.90;;;;;;6203049;28;20477;-63
2021/09/13 03:48:52;;;;;;;11.17;10.27;;;17.10;99.90;;;;;;6202963;28;20853;-63
2021/09/13 03:51:55;;;;;;;11.40;10.50;;;17.00;99.90;;;;;;6202678;28;20807;-63
2021/09/13 03:54:58;;;;;;;11.50;10.60;;;17.00;99.90;;;;;;6202735;28;20472;-63
2021/09/13 03:58:03;;;;;;;12.13;11.13;;;17.00;99.90;;;;;;6202526;28;20839;-63
2021/09/13 04:01:06;;;;;;;12.30;11.20;;;17.00;99.90;;;;;;6202218;28;20963;-63
2021/09/13 04:04:10;;;;;;;11.53;10.53;;;17.00;99.90;;;;;;6193676;28;20819;-63
2021/09/13 04:07:17;;;;;;;11.73;10.83;;;16.90;99.90;;;;;;6202561;28;20495;-63
2021/09/13 04:10:23;;;;;;;11.23;10.10;;;16.90;99.90;;;;;;6202166;28;20497;-62
2021/09/13 04:13:27;;;;;;;12.57;11.50;;;16.90;99.90;;;;;;6202874;28;20473;-62
2021/09/13 04:16:31;;;;;;;12.23;11.03;;;16.90;99.90;;;;;;6202191;28;20469;-63
2021/09/13 04:19:35;;;;;;;11.73;10.77;;;16.90;99.90;;;;;;6202517;28;20477;-63
2021/09/13 04:22:38;;;;;;;11.70;10.60;;;16.80;99.90;;;;;;6202006;28;20976;-62
2021/09/13 04:25:42;;;;;;;11.43;10.53;;;16.80;99.90;;;;;;6201930;28;20483;-62
2021/09/13 04:28:46;;;;;;;12.30;11.17;;;16.70;99.90;;;;;;6202088;28;20480;-62
2021/09/13 04:31:49;;;;;;;10.77;9.80;;;16.70;99.90;;;;;;6203449;28;20477;-63
2021/09/13 04:34:52;;;;;;;16.37;14.77;;;16.70;99.90;;;;;;6204852;28;20473;-62
2021/09/13 04:37:55;;;;;;;12.93;11.73;;;16.60;99.90;;;;;;6203329;28;20531;-62
2021/09/13 04:40:59;;;;;;;12.63;11.37;;;16.60;99.90;;;;;;6201147;28;20488;-62
2021/09/13 04:44:03;;;;;;;11.20;10.23;;;16.60;99.90;;;;;;6204846;28;20484;-63
2021/09/13 04:47:07;;;;;;;12.23;11.13;;;16.60;99.90;;;;;;6202279;28;20810;-62
2021/09/13 04:50:10;;;;;;;11.93;10.83;;;16.60;99.90;;;;;;6202110;28;20812;-63
2021/09/13 04:53:14;;;;;;;11.90;10.80;;;16.60;99.90;;;;;;6204191;28;20469;-63
2021/09/13 04:56:17;;;;;;;12.20;11.03;;;16.60;99.90;;;;;;6204315;28;20465;-63
2021/09/13 04:59:21;;;;;;;11.70;10.70;;;16.60;99.90;;;;;;6206314;28;20472;-62
2021/09/13 05:02:24;;;;;;;12.20;11.13;;;16.70;99.90;;;;;;6205226;28;20544;-62
2021/09/13 05:05:28;;;;;;;12.33;11.17;;;16.70;99.90;;;;;;6205710;28;20508;-61
2021/09/13 05:08:31;;;;;;;12.17;11.07;;;16.80;99.90;;;;;;6200673;28;20495;-62
2021/09/13 05:11:34;;;;;;;12.70;11.50;;;16.80;99.90;;;;;;6205295;28;20493;-62
2021/09/13 05:14:39;;;;;;;11.70;10.67;;;16.80;99.90;;;;;;6203882;28;20472;-63
2021/09/13 05:17:42;;;;;;;10.83;9.93;;;16.90;99.90;;;;;;6201994;28;20472;-62
2021/09/13 05:20:45;;;;;;;13.17;12.07;;;16.90;99.90;;;;;;6203765;28;20493;-62
2021/09/13 05:23:48;;;;;;;12.10;10.93;;;17.00;99.90;;;;;;6205548;28;20527;-62
2021/09/13 05:26:51;;;;;;;13.03;11.73;;;17.00;99.90;;;;;;6203576;28;20492;-62
2021/09/13 05:29:56;;;;;;;10.83;9.93;;;17.00;99.90;;;;;;6202877;28;20444;-62
2021/09/13 05:32:59;;;;;;;12.00;10.90;;;17.00;99.90;;;;;;6201712;28;20793;-62
2021/09/13 05:36:02;;;;;;;10.97;10.17;;;17.10;99.90;;;;;;6201064;28;20449;-63
2021/09/13 05:39:05;;;;;;;12.60;11.60;;;17.20;99.90;;;;;;6200531;28;20455;-62
2021/09/13 05:42:09;;;;;;;11.07;10.00;;;17.20;99.90;;;;;;6200068;28;20560;-63
2021/09/13 05:45:14;;;;;;;12.77;11.67;;;17.20;99.90;;;;;;6199744;28;20987;-63
2021/09/13 05:48:17;;;;;;;12.30;11.20;;;17.20;99.90;;;;;;6200410;28;20780;-62
2021/09/13 05:51:20;;;;;;;11.23;10.33;;;17.20;99.90;;;;;;6205182;28;20841;-62
2021/09/13 05:54:25;;;;;;;12.70;11.50;;;17.20;99.90;;;;;;6205762;28;20544;-62
2021/09/13 05:57:28;;;;;;;13.50;12.20;;;17.30;99.90;;;;;;6205763;28;20823;-62
2021/09/13 06:00:33;;;;;;;12.00;10.80;;;17.40;99.90;;;;;;6205583;28;20796;-62
2021/09/13 06:03:37;;;;;;;11.70;10.70;;;17.50;99.90;;;;;;6206037;28;20480;-63
2021/09/13 06:06:41;;;;;;;12.90;11.77;;;17.60;99.90;;;;;;6205706;28;20476;-63
2021/09/13 06:09:44;;;;;;;12.73;11.47;;;17.70;99.90;;;;;;6205048;28;20984;-63
2021/09/13 06:12:47;;;;;;;13.07;11.97;;;17.80;99.90;;;;;;6227831;28;20792;-63
2021/09/13 06:15:51;;;;;;;11.13;10.13;;;18.00;99.90;;;;;;6229854;28;20784;-62
2021/09/13 06:19:11;;;;;;;12.00;10.77;;;18.20;99.90;;;;;;6229926;28;20475;-62
2021/09/13 06:22:14;;;;;;;11.77;10.77;;;18.50;99.90;;;;;;6229471;28;20495;-63
2021/09/13 06:25:17;;;;;;;13.07;11.80;;;18.90;99.90;;;;;;6229097;28;20604;-63
2021/09/13 06:28:20;;;;;;;11.77;10.60;;;20.20;99.90;;;;;;6229273;28;20251;-63
2021/09/13 06:31:25;;;;;;;11.37;10.30;;;22.00;99.90;;;;;;6229571;28;20291;-63
2021/09/13 06:34:29;;;;;;;11.60;10.60;;;23.60;96.90;;;;;;6229162;28;20265;-63
2021/09/13 06:37:33;;;;;;;12.30;11.23;;;25.00;93.30;;;;;;6229580;28;20236;-63
2021/09/13 06:40:36;;;;;;;13.47;10.50;;;26.30;90.10;;;;;;6229064;28;20310;-63
2021/09/13 06:43:42;;;;;;;12.80;9.67;;;27.30;85.10;;;;;;6229297;28;20229;-63
2021/09/13 06:46:50;;;;;;;12.27;11.37;;;28.40;78.80;;;;;;6229159;28;20286;-63
2021/09/13 06:49:53;;;;;;;10.60;9.70;;;29.50;73.30;;;;;;6229036;28;20228;-64
2021/09/13 06:52:57;;;;;;;11.73;10.47;;;30.40;67.00;;;;;;6229625;28;20228;-63
2021/09/13 06:56:01;;;;;;;10.60;9.53;;;31.40;62.60;;;;;;6228908;28;20224;-63
2021/09/13 06:59:04;;;;;;;13.13;10.80;;;32.20;58.90;;;;;;6221016;28;20250;-64
2021/09/13 07:02:11;;;;;;;11.45;10.30;;;32.90;56.20;;;;;;6227735;28;20235;-64
2021/09/13 07:05:16;;;;;;;11.45;10.45;;;33.90;52.30;;;;;;6228441;28;20655;-64
2021/09/13 07:08:19;;;;;;;10.07;9.27;;;34.60;50.20;;;;;;6227438;28;20711;-64
2021/09/13 07:11:22;;;;;;;10.10;9.20;;;35.40;48.80;;;;;;6227792;28;20302;-64
2021/09/13 07:14:26;;;;;;;10.27;9.48;;;36.20;45.50;;;;;;6227800;28;20619;-64
2021/09/13 07:17:30;;;;;;;10.48;9.35;;;36.80;44.30;;;;;;6218705;28;20267;-64
2021/09/13 07:20:33;;;;;;;10.27;9.43;;;37.10;43.00;;;;;;6227564;28;20311;-64
2021/09/13 07:23:36;;;;;;;11.82;10.57;;;37.70;41.90;;;;;;6227726;28;20247;-64
2021/09/13 07:26:40;;;;;;;11.88;10.70;;;38.30;40.30;;;;;;6227496;28;20236;-64
2021/09/13 07:29:43;;;;;;;9.95;9.02;;;39.00;38.80;;;;;;6227547;28;20227;-64
2021/09/13 07:32:48;;;;;;;11.05;10.15;;;39.50;37.70;;;;;;6227340;28;20251;-64
2021/09/13 07:35:51;;;;;;;9.55;8.85;;;40.00;36.50;;;;;;6227220;28;20235;-65
2021/09/13 07:38:55;;;;;;;9.90;9.10;;;40.60;35.30;;;;;;6216838;28;20660;-65
2021/09/13 07:41:58;;;;;;;10.02;9.23;;;41.10;34.20;;;;;;6201470;28;20586;-64
2021/09/13 07:45:02;;;;;;;10.27;9.45;;;41.00;33.40;;;;;;6201627;28;20208;-64
2021/09/13 07:48:07;;;;;;;10.32;9.52;;;41.00;33.10;;;;;;6201179;28;20235;-64
2021/09/13 07:51:10;;;;;;;9.50;8.60;;;41.30;32.70;;;;;;6201273;28;20727;-65
2021/09/13 07:54:13;;;;;;;9.75;8.93;;;41.30;32.40;;;;;;6201415;28;20232;-63
2021/09/13 07:57:16;;;;;;;11.80;9.77;;;41.30;32.20;;;;;;6201370;28;20233;-64
2021/09/13 08:00:19;;;;;;;9.68;8.95;;;42.00;31.50;;;;;;6220785;28;20239;-64
2021/09/13 08:03:24;;;;;;;8.85;8.00;;;43.20;30.90;;;;;;6214038;28;20235;-63
2021/09/13 08:06:27;;;;;;;8.82;8.23;;;44.50;29.50;;;;;;6208588;28;20245;-64
2021/09/13 08:09:32;;;;;;;8.90;8.20;;;45.60;28.20;;;;;;6225365;28;20676;-63
2021/09/13 08:12:35;;;;;;;7.78;7.28;;;45.80;26.90;;;;;;6224299;28;20247;-64
2021/09/13 08:15:38;;;;;;;7.53;7.03;;;45.80;26.60;;;;;;6225696;28;20236;-65
2021/09/13 08:18:43;;;;;;;7.82;7.00;;;46.40;26.30;;;;;;6220684;28;20233;-65
2021/09/13 08:21:46;;;;;;;8.07;7.47;;;46.90;25.90;;;;;;6225013;28;20247;-65
2021/09/13 08:24:50;;;;;;;7.95;7.35;;;47.50;25.10;;;;;;6225150;28;20676;-64
2021/09/13 08:27:54;;;;;;;7.85;7.28;;;47.90;25.40;;;;;;6225137;28;20248;-64
2021/09/13 08:30:57;;;;;;;7.93;7.32;;;48.40;24.40;;;;;;6224905;28;20240;-64
2021/09/13 08:34:01;;;;;;;8.38;7.72;;;48.90;24.00;;;;;;6224584;28;20229;-64
2021/09/13 08:37:05;;;;;;;7.35;6.78;;;49.60;23.60;;;;;;6225033;28;20223;-67
2021/09/13 08:40:09;;;;;;;8.68;7.95;;;50.10;23.10;;;;;;6225399;28;20226;-65
2021/09/13 08:43:12;;;;;;;7.55;7.05;;;50.50;22.80;;;;;;6225074;28;20239;-66
2021/09/13 08:46:19;;;;;;;7.97;7.28;;;49.30;23.00;;;;;;6224734;28;20239;-65
2021/09/13 08:49:29;;;;;;;7.85;7.25;;;50.00;23.00;;;;;;6224909;28;20239;-65
2021/09/13 08:52:34;;;;;;;7.40;6.78;;;50.90;22.70;;;;;;6224769;28;20244;-65
2021/09/13 08:55:37;;;;;;;7.20;6.70;;;52.10;21.70;;;;;;6221238;28;20232;-66
2021/09/13 08:58:41;;;;;;;6.45;6.05;;;52.60;21.20;;;;;;6224472;28;20742;-65
2021/09/13 09:01:47;;;;;;;7.40;6.80;;;52.90;21.00;;;;;;6224808;28;20253;-65
2021/09/13 09:04:52;;;;;;;6.43;6.03;;;51.10;21.20;;;;;;6225250;28;20236;-65
2021/09/13 09:07:57;;;;;;;7.68;7.07;;;51.40;21.70;;;;;;6223956;28;20244;-66
2021/09/13 09:11:02;;;;;;;6.32;5.75;;;51.80;21.20;;;;;;6224231;28;20238;-65
2021/09/13 09:14:05;;;;;;;7.72;7.18;;;52.10;21.10;;;;;;6224587;28;20240;-67
2021/09/13 09:17:13;;;;;;;6.45;5.90;;;52.60;20.50;;;;;;6225574;28;20219;-65
2021/09/13 09:20:18;;;;;;;6.80;6.20;;;53.20;20.20;;;;;;6224906;28;20235;-65
2021/09/13 09:23:21;;;;;;;6.95;6.55;;;53.30;20.00;;;;;;6225405;28;20302;-65
2021/09/13 09:26:25;;;;;;;6.60;6.10;;;54.10;19.70;;;;;;6224882;28;20564;-64
2021/09/13 09:29:29;;;;;;;6.30;5.82;;;55.00;19.50;;;;;;6224116;28;20236;-67
2021/09/13 09:32:32;;;;;;;6.30;5.90;;;55.90;18.70;;;;;;6215897;28;20671;-67
2021/09/13 09:35:47;;;;;;;6.45;6.05;;;56.40;18.20;;;;;;6220513;28;20248;-67
2021/09/13 09:38:51;;;;;;;6.28;5.90;;;56.70;17.80;;;;;;6215722;28;20221;-67
2021/09/13 09:41:56;;;;;;;6.60;6.30;;;56.60;17.70;;;;;;6206258;28;20228;-67
2021/09/13 09:45:01;;;;;;;7.60;7.20;;;56.60;18.00;;;;;;6228415;28;20196;-69
2021/09/13 09:48:08;;;;;;;6.75;6.30;;;56.20;17.80;;;;;;6209717;28;20212;-69
2021/09/13 09:51:31;;;;;;;6.85;6.35;;;55.70;18.10;;;;;;6209163;28;20232;-68
2021/09/13 09:54:34;;;;;;;5.80;5.40;;;55.20;18.20;;;;;;6224229;28;20695;-68
2021/09/13 09:57:37;;;;;;;5.45;5.15;;;55.50;18.00;;;;;;6228569;28;20240;-69
2021/09/13 10:00:44;;;;;;;6.10;5.80;;;54.90;18.30;;;;;;6228594;28;20231;-68
2021/09/13 10:03:47;;;;;;;6.50;6.10;;;54.70;17.90;;;;;;6228779;28;20242;-69
2021/09/13 10:06:55;;;;;;;6.57;6.18;;;54.00;18.70;;;;;;6229151;28;20226;-69
2021/09/13 10:09:59;;;;;;;7.18;6.68;;;53.10;19.40;;;;;;6229401;28;20243;-68
2021/09/13 10:13:03;;;;;;;7.53;6.45;;;51.10;20.30;;;;;;6229655;28;20239;-66
2021/09/13 10:16:06;;;;;;;7.20;6.78;;;48.30;22.00;;;;;;6229040;28;20566;-67
2021/09/13 10:19:10;;;;;;;7.25;6.82;;;46.60;22.90;;;;;;6229451;28;20686;-65
2021/09/13 10:22:14;;;;;;;7.72;7.05;;;45.30;24.70;;;;;;6229260;28;20242;-68
2021/09/13 10:25:19;;;;;;;7.65;7.05;;;43.50;25.50;;;;;;6223198;28;20571;-66
2021/09/13 10:28:22;;;;;;;8.27;7.78;;;42.10;26.60;;;;;;6208498;28;20240;-68
2021/09/13 10:31:59;;;;;;;8.50;7.72;;;40.50;28.20;;;;;;6214227;28;20243;-66
2021/09/13 10:35:03;;;;;;;8.02;7.53;;;38.90;29.70;;;;;;6203655;28;20237;-65
2021/09/13 10:38:07;;;;;;;7.78;7.18;;;37.80;31.10;;;;;;6204801;28;20689;-68
2021/09/13 10:41:11;;;;;;;8.32;7.22;;;37.10;31.60;;;;;;6209815;28;20227;-66
2021/09/13 10:44:14;;;;;;;9.18;8.48;;;36.60;32.30;;;;;;6204349;28;20228;-66
2021/09/13 10:47:28;;;;;;;8.73;7.93;;;35.80;34.40;;;;;;6204358;28;20534;-69
2021/09/13 10:50:41;;;;;;;8.52;7.82;;;35.20;35.40;;;;;;6204174;28;20245;-67
2021/09/13 10:53:55;;;;;;;8.57;7.95;;;34.90;36.30;;;;;;6212137;28;20229;-68
2021/09/13 10:57:06;;;;;;;8.50;7.90;;;34.40;37.60;;;;;;6202852;28;20220;-68
2021/09/13 11:00:10;;;;;;;8.57;7.90;;;34.20;37.70;;;;;;6219358;28;20239;-67
2021/09/13 11:03:36;;;;;;;9.00;8.40;;;34.30;38.10;;;;;;6227206;28;20251;-68
2021/09/13 11:06:44;;;;;;;7.97;7.38;;;34.10;37.60;;;;;;6226618;28;20263;-68
2021/09/13 11:09:57;;;;;;;8.13;7.45;;;34.10;37.70;;;;;;6227262;28;20314;-67
2021/09/13 11:13:00;;;;;;;8.93;8.30;;;34.20;37.40;;;;;;6227661;28;20243;-68
2021/09/13 11:16:04;;;;;;;8.18;7.47;;;33.50;38.00;;;;;;6226650;28;20255;-68
2021/09/13 11:19:11;;;;;;;8.85;8.15;;;33.00;38.90;;;;;;6226960;28;20236;-68
2021/09/13 11:22:15;;;;;;;8.35;7.75;;;33.00;39.10;;;;;;6227572;28;20922;-67
2021/09/13 11:25:19;;;;;;;8.88;8.27;;;33.20;39.00;;;;;;6227273;28;20232;-68
2021/09/13 11:28:22;;;;;;;9.48;8.77;;;32.80;39.10;;;;;;6227529;28;20695;-68
2021/09/13 11:31:31;;;;;;;7.80;7.30;;;32.50;39.80;;;;;;6226475;28;20239;-68
2021/09/13 11:34:39;;;;;;;9.00;8.20;;;32.80;40.00;;;;;;6213305;28;20695;-65
2021/09/13 11:37:42;;;;;;;7.78;7.07;;;33.10;38.60;;;;;;6227006;28;20225;-67
2021/09/13 11:41:14;;;;;;;8.05;7.45;;;33.20;37.70;;;;;;6227543;28;20281;-66
2021/09/13 11:44:17;;;;;;;7.38;6.88;;;33.40;36.70;;;;;;6227041;28;20240;-69
2021/09/13 11:47:23;;;;;;;7.57;6.95;;;33.50;36.20;;;;;;6227387;28;20238;-67
2021/09/13 11:50:26;;;;;;;8.32;7.72;;;33.30;37.10;;;;;;6226589;28;20574;-68
2021/09/13 11:53:29;;;;;;;7.97;7.47;;;33.50;37.00;;;;;;6226892;28;20286;-67
2021/09/13 11:56:33;;;;;;;7.28;6.78;;;33.20;37.40;;;;;;6226726;28;20228;-69
2021/09/13 11:59:39;;;;;;;8.13;7.30;;;33.10;37.90;;;;;;6218151;28;20232;-69
2021/09/13 12:02:45;;;;;;;7.70;7.00;;;33.30;37.10;;;;;;6216460;28;20229;-68
2021/09/13 12:05:54;;;;;;;7.75;7.05;;;33.50;37.00;;;;;;6212689;28;20891;-67
2021/09/13 12:08:57;;;;;;;7.45;6.90;;;33.60;36.10;;;;;;6226507;28;20207;-68
2021/09/13 12:12:02;;;;;;;7.38;6.88;;;33.50;36.10;;;;;;6226272;28;20244;-68
2021/09/13 12:15:08;;;;;;;6.68;6.22;;;33.30;36.00;;;;;;6226558;28;20208;-68
2021/09/13 12:18:12;;;;;;;7.20;6.70;;;33.30;36.10;;;;;;6220697;28;20251;-67
2021/09/13 12:21:19;;;;;;;6.90;6.38;;;33.30;35.50;;;;;;6219519;28;20603;-67
2021/09/13 12:24:23;;;;;;;7.22;6.63;;;33.20;35.70;;;;;;6210911;28;20229;-67
2021/09/13 12:27:28;;;;;;;7.05;6.55;;;32.70;36.70;;;;;;6225898;28;20240;-67
2021/09/13 12:30:33;;;;;;;6.78;6.28;;;32.70;37.20;;;;;;6209747;28;20255;-67
2021/09/13 12:33:37;;;;;;;8.38;7.68;;;32.50;36.60;;;;;;6213611;28;20571;-66
2021/09/13 12:36:41;;;;;;;7.10;6.57;;;31.60;38.30;;;;;;6198255;28;20243;-67
2021/09/13 12:40:04;;;;;;;8.70;8.10;;;31.80;38.10;;;;;;6202346;28;20233;-67
2021/09/13 12:43:08;;;;;;;7.20;6.47;;;31.90;38.50;;;;;;6213115;28;20243;-67
2021/09/13 12:46:13;;;;;;;7.30;6.80;;;32.10;37.70;;;;;;6209381;28;20224;-68
2021/09/13 12:49:16;;;;;;;6.80;6.28;;;32.00;37.40;;;;;;6222552;28;20228;-67
2021/09/13 12:52:20;;;;;;;8.55;6.47;;;32.20;36.90;;;;;;6221644;28;20564;-66
2021/09/13 12:55:25;;;;;;;7.30;6.80;;;32.40;36.90;;;;;;6220265;28;20238;-67
2021/09/13 12:58:31;;;;;;;6.80;6.30;;;32.40;36.70;;;;;;6214678;28;20229;-67
2021/09/13 13:01:37;;;;;;;7.35;6.68;;;32.60;36.90;;;;;;6217313;28;20236;-66
2021/09/13 13:04:41;;;;;;;6.78;6.30;;;32.70;36.60;;;;;;6216654;28;20235;-67
2021/09/13 13:07:44;;;;;;;7.65;7.07;;;32.40;36.50;;;;;;6203029;28;20233;-67
2021/09/13 13:10:48;;;;;;;7.25;6.65;;;32.10;37.10;;;;;;6208462;28;20247;-67
2021/09/13 13:13:52;;;;;;;7.57;7.07;;;32.30;37.30;;;;;;6208507;28;20236;-66
2021/09/13 13:16:55;;;;;;;8.30;7.57;;;32.20;36.70;;;;;;6216274;28;20568;-67
2021/09/13 13:19:59;;;;;;;7.57;6.93;;;31.80;37.30;;;;;;6217000;28;20239;-67
2021/09/13 13:23:02;;;;;;;7.18;6.63;;;32.00;36.80;;;;;;6210706;28;20243;-68
2021/09/13 13:26:05;;;;;;;7.57;7.00;;;32.10;37.30;;;;;;6219313;28;20239;-68
2021/09/13 13:29:11;;;;;;;7.10;6.60;;;31.70;38.00;;;;;;6224898;28;20225;-67
2021/09/13 13:32:14;;;;;;;6.90;6.30;;;31.60;38.50;;;;;;6208378;28;20568;-67
2021/09/13 13:35:17;;;;;;;7.80;7.20;;;32.00;37.90;;;;;;6213100;28;20231;-68
2021/09/13 13:38:20;;;;;;;7.97;7.28;;;32.20;38.00;;;;;;6216588;28;20236;-68
2021/09/13 13:41:24;;;;;;;7.55;6.95;;;32.20;38.00;;;;;;6212474;28;20803;-68
2021/09/13 13:44:34;;;;;;;7.40;6.80;;;32.30;38.20;;;;;;6213255;28;20692;-68
2021/09/13 13:47:38;;;;;;;7.80;7.30;;;32.10;38.40;;;;;;6210788;28;20232;-69
2021/09/13 13:50:41;;;;;;;6.97;6.47;;;32.10;38.20;;;;;;6219672;28;20235;-67
2021/09/13 13:53:44;;;;;;;8.32;7.63;;;32.10;38.10;;;;;;6210091;28;20228;-67
2021/09/13 13:56:48;;;;;;;8.77;8.00;;;31.90;38.60;;;;;;6219251;28;20228;-68
2021/09/13 13:59:53;;;;;;;7.22;6.72;;;31.60;39.40;;;;;;6224107;28;20564;-68
2021/09/13 14:02:56;;;;;;;7.75;7.18;;;31.30;39.80;;;;;;6213166;28;20220;-67
2021/09/13 14:06:00;;;;;;;8.10;7.50;;;30.90;40.90;;;;;;6214628;28;20200;-67
2021/09/13 14:09:04;;;;;;;7.65;7.13;;;30.50;41.60;;;;;;6215814;28;20247;-68
2021/09/13 14:12:08;;;;;;;7.55;6.93;;;30.40;41.90;;;;;;6220038;28;20235;-66
2021/09/13 14:15:13;;;;;;;8.05;7.53;;;30.10;42.30;;;;;;6217187;28;21793;-67
2021/09/13 14:18:16;;;;;;;8.85;8.10;;;30.00;42.60;;;;;;6219711;28;20675;-67
2021/09/13 14:21:19;;;;;;;8.55;7.88;;;30.00;42.60;;;;;;6208479;28;20243;-65
2021/09/13 14:24:22;;;;;;;8.15;7.55;;;29.90;42.50;;;;;;6209040;28;20224;-67
2021/09/13 14:27:26;;;;;;;8.73;7.93;;;29.50;42.70;;;;;;6228727;28;20228;-65
2021/09/13 14:30:30;;;;;;;7.87;7.13;;;29.50;42.70;;;;;;6220277;28;20243;-66
2021/09/13 14:33:35;;;;;;;8.37;7.70;;;29.50;42.70;;;;;;6222459;28;20239;-67
2021/09/13 14:36:38;;;;;;;7.63;6.90;;;29.30;42.50;;;;;;6228276;28;20672;-67
2021/09/13 14:39:42;;;;;;;8.20;7.17;;;29.40;42.60;;;;;;6222286;28;20683;-66
2021/09/13 14:42:45;;;;;;;9.47;7.87;;;29.30;43.00;;;;;;6200374;28;20229;-66
2021/09/13 14:45:51;;;;;;;12.07;8.70;;;29.20;43.40;;;;;;6216752;28;20633;-67
2021/09/13 14:48:55;;;;;;;8.73;8.03;;;29.10;43.20;;;;;;6210364;28;20683;-66
2021/09/13 14:51:58;;;;;;;8.67;7.97;;;28.90;43.80;;;;;;6227052;28;20235;-66
2021/09/13 14:55:01;;;;;;;8.17;7.27;;;28.80;43.70;;;;;;6208109;28;20255;-65
2021/09/13 14:58:04;;;;;;;7.83;7.10;;;28.70;44.30;;;;;;6215619;28;20225;-69
2021/09/13 15:01:11;;;;;;;8.07;7.33;;;28.60;44.40;;;;;;6217344;28;20232;-67
2021/09/13 15:04:14;;;;;;;7.90;7.30;;;28.70;44.50;;;;;;6210620;28;20239;-65
2021/09/13 15:07:17;;;;;;;10.90;8.60;;;28.70;44.60;;;;;;6226550;28;20243;-66
2021/09/13 15:10:21;;;;;;;9.30;8.50;;;28.80;44.80;;;;;;6209940;28;20233;-65
2021/09/13 15:13:24;;;;;;;7.63;7.10;;;28.70;44.60;;;;;;6216658;28;20233;-67
2021/09/13 15:16:28;;;;;;;10.00;7.73;;;28.80;45.70;;;;;;6219022;28;20233;-66
2021/09/13 15:19:31;;;;;;;8.80;8.00;;;28.80;45.20;;;;;;6215206;28;20236;-67
2021/09/13 15:22:35;;;;;;;8.27;7.47;;;28.70;45.60;;;;;;6210911;28;20552;-65
2021/09/13 15:25:38;;;;;;;8.37;7.70;;;28.60;45.50;;;;;;6230723;28;20742;-67
2021/09/13 15:28:41;;;;;;;8.37;7.67;;;28.50;45.80;;;;;;6231481;28;20232;-67
2021/09/13 15:31:46;;;;;;;10.40;8.00;;;28.60;45.90;;;;;;6217085;28;20246;-69
2021/09/13 15:34:53;;;;;;;7.90;7.30;;;28.70;45.90;;;;;;6224766;28;20236;-67
2021/09/13 15:37:56;;;;;;;7.77;6.97;;;28.60;46.40;;;;;;6227271;28;20645;-68
2021/09/13 15:41:00;;;;;;;8.53;7.50;;;28.60;46.60;;;;;;6210369;28;20228;-65
2021/09/13 15:44:03;;;;;;;8.00;7.37;;;28.70;46.10;;;;;;6212972;28;20685;-67
2021/09/13 15:47:08;;;;;;;8.57;7.87;;;28.50;46.20;;;;;;6219392;28;20235;-64
2021/09/13 15:50:11;;;;;;;7.70;7.00;;;28.30;46.30;;;;;;6215014;28;20229;-63